sensor_id;sensor_type;location;lat;lon;timestamp;temperature;humidity
10247;DHT22;5168;47.854;7.944;2022-12-18T00:04:40;-4.80;97.40
10247;DHT22;5168;47.854;7.944;2022-12-18T00:07:05;-3.80;95.90
10247;DHT22;5168;47.854;7.944;2022-12-18T00:09:31;-4.70;95.40
10247;DHT22;5168;47.854;7.944;2022-12-18T00:14:22;-4.40;95.60
10247;DHT22;5168;47.854;7.944;2022-12-18T00:16:48;-4.30;95.40
10247;DHT22;5168;47.854;7.944;2022-12-18T00:19:14;-4.30;93.60
10247;DHT22;5168;47.854;7.944;2022-12-18T00:21:40;-4.30;95.50
10247;DHT22;5168;47.854;7.944;2022-12-18T00:24:07;-4.30;96.00
10247;DHT22;5168;47.854;7.944;2022-12-18T00:26:34;-4.20;91.60
10247;DHT22;5168;47.854;7.944;2022-12-18T00:29:06;-4.30;95.30
10247;DHT22;5168;47.854;7.944;2022-12-18T00:31:32;-4.30;92.20
10247;DHT22;5168;47.854;7.944;2022-12-18T00:36:31;-4.20;88.30
10247;DHT22;5168;47.854;7.944;2022-12-18T00:38:58;-4.20;90.40
10247;DHT22;5168;47.854;7.944;2022-12-18T00:41:25;-4.20;93.10
10247;DHT22;5168;47.854;7.944;2022-12-18T00:44:11;-3.70;93.10
10247;DHT22;5168;47.854;7.944;2022-12-18T00:46:37;-4.20;90.20
10247;DHT22;5168;47.854;7.944;2022-12-18T00:56:21;-4.00;92.00
10247;DHT22;5168;47.854;7.944;2022-12-18T00:58:47;-4.10;91.00
10247;DHT22;5168;47.854;7.944;2022-12-18T01:01:13;-3.90;90.10
10247;DHT22;5168;47.854;7.944;2022-12-18T01:03:39;-3.70;89.90
10247;DHT22;5168;47.854;7.944;2022-12-18T01:06:09;-3.70;89.10
10247;DHT22;5168;47.854;7.944;2022-12-18T01:08:35;-3.70;89.60
10247;DHT22;5168;47.854;7.944;2022-12-18T01:11:17;-3.60;89.40
10247;DHT22;5168;47.854;7.944;2022-12-18T01:16:11;-3.70;81.90
10247;DHT22;5168;47.854;7.944;2022-12-18T01:21:11;-3.80;77.70
10247;DHT22;5168;47.854;7.944;2022-12-18T01:23:37;-3.90;86.90
10247;DHT22;5168;47.854;7.944;2022-12-18T01:26:12;-4.20;89.90
10247;DHT22;5168;47.854;7.944;2022-12-18T01:28:38;-3.60;87.70
10247;DHT22;5168;47.854;7.944;2022-12-18T01:33:36;-3.60;84.20
10247;DHT22;5168;47.854;7.944;2022-12-18T01:38:28;-3.60;69.60
10247;DHT22;5168;47.854;7.944;2022-12-18T01:40:58;-4.00;72.90
10247;DHT22;5168;47.854;7.944;2022-12-18T01:43:54;-3.50;75.00
10247;DHT22;5168;47.854;7.944;2022-12-18T01:46:21;-3.30;87.90
10247;DHT22;5168;47.854;7.944;2022-12-18T01:48:50;-3.10;85.30
10247;DHT22;5168;47.854;7.944;2022-12-18T01:53:44;-3.10;79.80
10247;DHT22;5168;47.854;7.944;2022-12-18T01:56:14;-3.10;82.80
10247;DHT22;5168;47.854;7.944;2022-12-18T01:58:46;-3.20;71.90
10247;DHT22;5168;47.854;7.944;2022-12-18T02:03:43;-3.20;71.50
10247;DHT22;5168;47.854;7.944;2022-12-18T02:06:29;-3.10;80.00
10247;DHT22;5168;47.854;7.944;2022-12-18T02:09:07;-3.20;76.50
10247;DHT22;5168;47.854;7.944;2022-12-18T02:17:03;-3.20;71.50
10247;DHT22;5168;47.854;7.944;2022-12-18T02:20:08;-3.00;80.00
10247;DHT22;5168;47.854;7.944;2022-12-18T02:25:15;-3.10;79.40
10247;DHT22;5168;47.854;7.944;2022-12-18T02:27:46;-3.00;78.60
10247;DHT22;5168;47.854;7.944;2022-12-18T02:30:14;-3.20;68.40
10247;DHT22;5168;47.854;7.944;2022-12-18T02:32:43;-2.60;78.80
10247;DHT22;5168;47.854;7.944;2022-12-18T02:35:15;-3.40;79.10
10247;DHT22;5168;47.854;7.944;2022-12-18T02:37:43;-3.20;78.60
10247;DHT22;5168;47.854;7.944;2022-12-18T02:40:11;-3.20;79.10
10247;DHT22;5168;47.854;7.944;2022-12-18T02:42:37;-3.10;80.90
10247;DHT22;5168;47.854;7.944;2022-12-18T02:45:03;-3.10;80.60
10247;DHT22;5168;47.854;7.944;2022-12-18T02:47:32;-3.30;80.10
10247;DHT22;5168;47.854;7.944;2022-12-18T02:53:10;-3.30;80.00
10247;DHT22;5168;47.854;7.944;2022-12-18T03:01:09;-3.10;81.40
10247;DHT22;5168;47.854;7.944;2022-12-18T03:03:45;-3.20;72.00
10247;DHT22;5168;47.854;7.944;2022-12-18T03:08:54;-3.30;70.80
10247;DHT22;5168;47.854;7.944;2022-12-18T03:11:21;-3.20;78.10
10247;DHT22;5168;47.854;7.944;2022-12-18T03:14:07;-3.10;76.30
10247;DHT22;5168;47.854;7.944;2022-12-18T03:16:35;-3.20;66.40
10247;DHT22;5168;47.854;7.944;2022-12-18T03:19:15;-3.30;64.40
10247;DHT22;5168;47.854;7.944;2022-12-18T03:21:45;-3.20;73.60
10247;DHT22;5168;47.854;7.944;2022-12-18T03:24:11;-3.40;72.70
10247;DHT22;5168;47.854;7.944;2022-12-18T03:26:41;-3.30;62.40
10247;DHT22;5168;47.854;7.944;2022-12-18T03:29:21;-3.20;68.80
10247;DHT22;5168;47.854;7.944;2022-12-18T03:31:55;-2.90;62.70
10247;DHT22;5168;47.854;7.944;2022-12-18T03:34:32;-2.80;63.80
10247;DHT22;5168;47.854;7.944;2022-12-18T03:36:59;-2.90;67.00
10247;DHT22;5168;47.854;7.944;2022-12-18T03:39:24;-2.60;70.10
10247;DHT22;5168;47.854;7.944;2022-12-18T03:44:32;-2.80;70.50
10247;DHT22;5168;47.854;7.944;2022-12-18T03:47:08;-2.90;69.60
10247;DHT22;5168;47.854;7.944;2022-12-18T03:52:14;-2.20;68.70
10247;DHT22;5168;47.854;7.944;2022-12-18T03:54:41;-2.90;56.30
10247;DHT22;5168;47.854;7.944;2022-12-18T03:57:14;-2.80;63.30
10247;DHT22;5168;47.854;7.944;2022-12-18T03:59:43;-2.70;58.70
10247;DHT22;5168;47.854;7.944;2022-12-18T04:02:09;-2.50;68.30
10247;DHT22;5168;47.854;7.944;2022-12-18T04:04:39;-2.30;68.90
10247;DHT22;5168;47.854;7.944;2022-12-18T04:07:05;-1.80;69.80
10247;DHT22;5168;47.854;7.944;2022-12-18T04:09:32;-2.40;61.00
10247;DHT22;5168;47.854;7.944;2022-12-18T04:11:59;-2.50;70.60
10247;DHT22;5168;47.854;7.944;2022-12-18T04:14:24;-2.60;64.20
10247;DHT22;5168;47.854;7.944;2022-12-18T04:16:50;-2.40;70.00
10247;DHT22;5168;47.854;7.944;2022-12-18T04:19:16;-2.40;70.20
10247;DHT22;5168;47.854;7.944;2022-12-18T04:21:41;-2.50;70.20
10247;DHT22;5168;47.854;7.944;2022-12-18T04:24:07;-2.30;63.20
10247;DHT22;5168;47.854;7.944;2022-12-18T04:26:32;-1.60;70.00
10247;DHT22;5168;47.854;7.944;2022-12-18T04:28:58;-2.40;68.50
10247;DHT22;5168;47.854;7.944;2022-12-18T04:31:23;-2.70;63.80
10247;DHT22;5168;47.854;7.944;2022-12-18T04:36:15;-2.10;61.70
10247;DHT22;5168;47.854;7.944;2022-12-18T04:38:40;-2.10;63.10
10247;DHT22;5168;47.854;7.944;2022-12-18T04:41:06;-2.30;61.10
10247;DHT22;5168;47.854;7.944;2022-12-18T04:46:05;-2.30;56.00
10247;DHT22;5168;47.854;7.944;2022-12-18T04:48:32;-2.00;61.50
10247;DHT22;5168;47.854;7.944;2022-12-18T04:50:57;-2.40;65.20
10247;DHT22;5168;47.854;7.944;2022-12-18T04:53:23;-2.40;65.00
10247;DHT22;5168;47.854;7.944;2022-12-18T05:00:41;-2.10;64.70
10247;DHT22;5168;47.854;7.944;2022-12-18T05:03:06;-2.30;61.10
10247;DHT22;5168;47.854;7.944;2022-12-18T05:05:34;-2.00;63.50
10247;DHT22;5168;47.854;7.944;2022-12-18T05:10:26;-2.20;63.50
10247;DHT22;5168;47.854;7.944;2022-12-18T05:15:31;-2.60;63.10
10247;DHT22;5168;47.854;7.944;2022-12-18T05:17:57;-2.50;61.90
10247;DHT22;5168;47.854;7.944;2022-12-18T05:20:23;-2.30;63.20
10247;DHT22;5168;47.854;7.944;2022-12-18T05:22:50;-2.10;62.40
10247;DHT22;5168;47.854;7.944;2022-12-18T05:25:16;-2.20;64.50
10247;DHT22;5168;47.854;7.944;2022-12-18T05:27:42;-2.20;65.30
10247;DHT22;5168;47.854;7.944;2022-12-18T05:30:08;-2.20;63.00
10247;DHT22;5168;47.854;7.944;2022-12-18T05:32:34;-2.50;63.50
10247;DHT22;5168;47.854;7.944;2022-12-18T05:35:00;-2.20;65.40
10247;DHT22;5168;47.854;7.944;2022-12-18T05:44:43;-1.60;64.10
10247;DHT22;5168;47.854;7.944;2022-12-18T05:47:09;-1.70;63.60
10247;DHT22;5168;47.854;7.944;2022-12-18T05:49:35;-2.00;62.00
10247;DHT22;5168;47.854;7.944;2022-12-18T05:54:29;-2.40;55.60
10247;DHT22;5168;47.854;7.944;2022-12-18T05:56:55;-2.40;58.50
10247;DHT22;5168;47.854;7.944;2022-12-18T05:59:20;-2.40;59.80
10247;DHT22;5168;47.854;7.944;2022-12-18T06:04:12;-2.30;58.80
10247;DHT22;5168;47.854;7.944;2022-12-18T06:06:37;-2.40;56.10
10247;DHT22;5168;47.854;7.944;2022-12-18T06:09:04;-2.30;53.10
10247;DHT22;5168;47.854;7.944;2022-12-18T06:11:36;-2.60;56.60
10247;DHT22;5168;47.854;7.944;2022-12-18T06:14:03;-2.30;52.60
10247;DHT22;5168;47.854;7.944;2022-12-18T06:16:30;-2.20;58.80
10247;DHT22;5168;47.854;7.944;2022-12-18T06:18:56;-2.30;53.40
10247;DHT22;5168;47.854;7.944;2022-12-18T06:26:15;-1.80;53.30
10247;DHT22;5168;47.854;7.944;2022-12-18T06:28:41;-1.80;50.00
10247;DHT22;5168;47.854;7.944;2022-12-18T06:31:07;-1.70;48.40
10247;DHT22;5168;47.854;7.944;2022-12-18T06:33:34;-1.60;47.00
10247;DHT22;5168;47.854;7.944;2022-12-18T06:36:01;-1.70;51.70
10247;DHT22;5168;47.854;7.944;2022-12-18T06:38:27;-1.50;53.10
10247;DHT22;5168;47.854;7.944;2022-12-18T06:40:52;-1.60;52.80
10247;DHT22;5168;47.854;7.944;2022-12-18T06:43:18;-1.50;52.90
10247;DHT22;5168;47.854;7.944;2022-12-18T06:48:09;-1.10;55.70
10247;DHT22;5168;47.854;7.944;2022-12-18T06:50:35;-0.40;56.00
10247;DHT22;5168;47.854;7.944;2022-12-18T07:05:10;-1.40;55.60
10247;DHT22;5168;47.854;7.944;2022-12-18T07:10:02;-1.70;59.20
10247;DHT22;5168;47.854;7.944;2022-12-18T07:12:28;-1.50;58.00
10247;DHT22;5168;47.854;7.944;2022-12-18T07:22:11;-1.40;58.10
10247;DHT22;5168;47.854;7.944;2022-12-18T07:24:37;-1.40;59.10
10247;DHT22;5168;47.854;7.944;2022-12-18T07:27:02;-1.00;53.10
10247;DHT22;5168;47.854;7.944;2022-12-18T07:29:29;-1.10;60.10
10247;DHT22;5168;47.854;7.944;2022-12-18T07:36:46;-1.60;56.00
10247;DHT22;5168;47.854;7.944;2022-12-18T07:39:12;-1.40;58.80
10247;DHT22;5168;47.854;7.944;2022-12-18T07:41:37;-1.60;54.70
10247;DHT22;5168;47.854;7.944;2022-12-18T07:44:03;-1.50;49.80
10247;DHT22;5168;47.854;7.944;2022-12-18T07:46:29;-1.50;55.50
10247;DHT22;5168;47.854;7.944;2022-12-18T07:48:54;-1.40;56.90
10247;DHT22;5168;47.854;7.944;2022-12-18T07:51:20;-1.70;55.70
10247;DHT22;5168;47.854;7.944;2022-12-18T07:56:12;-1.30;53.70
10247;DHT22;5168;47.854;7.944;2022-12-18T07:58:38;-0.70;55.70
10247;DHT22;5168;47.854;7.944;2022-12-18T08:01:06;-1.10;55.90
10247;DHT22;5168;47.854;7.944;2022-12-18T08:03:32;-1.00;64.80
10247;DHT22;5168;47.854;7.944;2022-12-18T08:06:02;-0.90;63.80
10247;DHT22;5168;47.854;7.944;2022-12-18T08:08:28;-1.50;61.80
10247;DHT22;5168;47.854;7.944;2022-12-18T08:10:55;-0.90;60.70
10247;DHT22;5168;47.854;7.944;2022-12-18T08:13:20;-0.40;56.60
10247;DHT22;5168;47.854;7.944;2022-12-18T08:15:48;0.10;51.10
10247;DHT22;5168;47.854;7.944;2022-12-18T08:18:20;0.20;55.10
10247;DHT22;5168;47.854;7.944;2022-12-18T08:23:11;1.30;56.60
10247;DHT22;5168;47.854;7.944;2022-12-18T08:25:37;2.00;56.30
10247;DHT22;5168;47.854;7.944;2022-12-18T08:28:02;2.60;53.00
10247;DHT22;5168;47.854;7.944;2022-12-18T08:32:54;3.40;54.90
10247;DHT22;5168;47.854;7.944;2022-12-18T08:35:19;3.80;53.60
10247;DHT22;5168;47.854;7.944;2022-12-18T08:37:45;4.90;52.10
10247;DHT22;5168;47.854;7.944;2022-12-18T08:40:10;6.40;55.90
10247;DHT22;5168;47.854;7.944;2022-12-18T08:42:36;5.20;52.80
10247;DHT22;5168;47.854;7.944;2022-12-18T08:45:20;5.20;55.40
10247;DHT22;5168;47.854;7.944;2022-12-18T08:47:46;5.90;57.10
10247;DHT22;5168;47.854;7.944;2022-12-18T08:55:04;6.80;51.20
10247;DHT22;5168;47.854;7.944;2022-12-18T08:59:56;7.60;54.90
10247;DHT22;5168;47.854;7.944;2022-12-18T09:02:21;8.10;54.60
10247;DHT22;5168;47.854;7.944;2022-12-18T09:04:47;7.80;53.20
10247;DHT22;5168;47.854;7.944;2022-12-18T09:07:13;7.80;52.30
10247;DHT22;5168;47.854;7.944;2022-12-18T09:09:38;7.70;48.20
10247;DHT22;5168;47.854;7.944;2022-12-18T09:12:04;7.80;46.50
10247;DHT22;5168;47.854;7.944;2022-12-18T09:14:29;8.40;47.60
10247;DHT22;5168;47.854;7.944;2022-12-18T09:19:21;8.30;47.50
10247;DHT22;5168;47.854;7.944;2022-12-18T09:21:46;8.90;47.60
10247;DHT22;5168;47.854;7.944;2022-12-18T09:24:13;8.90;46.50
10247;DHT22;5168;47.854;7.944;2022-12-18T09:26:39;9.00;45.50
10247;DHT22;5168;47.854;7.944;2022-12-18T09:29:04;9.10;44.30
10247;DHT22;5168;47.854;7.944;2022-12-18T09:31:32;9.30;44.30
10247;DHT22;5168;47.854;7.944;2022-12-18T09:33:58;9.50;40.80
10247;DHT22;5168;47.854;7.944;2022-12-18T09:36:23;9.60;37.30
10247;DHT22;5168;47.854;7.944;2022-12-18T09:38:49;9.60;37.60
10247;DHT22;5168;47.854;7.944;2022-12-18T09:44:32;9.50;42.00
10247;DHT22;5168;47.854;7.944;2022-12-18T09:47:04;10.20;45.10
10247;DHT22;5168;47.854;7.944;2022-12-18T09:49:33;10.80;45.30
10247;DHT22;5168;47.854;7.944;2022-12-18T09:52:13;10.50;43.90
10247;DHT22;5168;47.854;7.944;2022-12-18T09:54:41;11.00;43.30
10247;DHT22;5168;47.854;7.944;2022-12-18T09:57:14;11.30;42.30
10247;DHT22;5168;47.854;7.944;2022-12-18T09:59:42;11.40;41.90
10247;DHT22;5168;47.854;7.944;2022-12-18T10:02:21;11.50;43.00
10247;DHT22;5168;47.854;7.944;2022-12-18T10:07:42;12.20;44.70
10247;DHT22;5168;47.854;7.944;2022-12-18T10:13:20;13.00;42.70
10247;DHT22;5168;47.854;7.944;2022-12-18T10:16:09;13.40;43.50
10247;DHT22;5168;47.854;7.944;2022-12-18T10:19:29;13.50;42.50
10247;DHT22;5168;47.854;7.944;2022-12-18T10:27:22;14.10;42.50
10247;DHT22;5168;47.854;7.944;2022-12-18T10:29:48;14.30;42.50
10247;DHT22;5168;47.854;7.944;2022-12-18T10:32:21;14.50;39.10
10247;DHT22;5168;47.854;7.944;2022-12-18T10:34:49;14.60;36.90
10247;DHT22;5168;47.854;7.944;2022-12-18T10:37:20;14.70;38.00
10247;DHT22;5168;47.854;7.944;2022-12-18T10:39:47;14.80;39.60
10247;DHT22;5168;47.854;7.944;2022-12-18T10:42:29;15.00;40.30
10247;DHT22;5168;47.854;7.944;2022-12-18T10:45:10;15.10;39.40
10247;DHT22;5168;47.854;7.944;2022-12-18T10:47:36;15.10;40.20
10247;DHT22;5168;47.854;7.944;2022-12-18T10:50:28;14.90;38.00
10247;DHT22;5168;47.854;7.944;2022-12-18T10:52:59;14.80;37.60
10247;DHT22;5168;47.854;7.944;2022-12-18T10:55:39;15.10;40.30
10247;DHT22;5168;47.854;7.944;2022-12-18T11:01:14;15.80;38.90
10247;DHT22;5168;47.854;7.944;2022-12-18T11:06:21;15.90;40.50
10247;DHT22;5168;47.854;7.944;2022-12-18T11:09:04;16.10;40.90
10247;DHT22;5168;47.854;7.944;2022-12-18T11:11:32;16.40;40.40
10247;DHT22;5168;47.854;7.944;2022-12-18T11:14:03;16.50;41.00
10247;DHT22;5168;47.854;7.944;2022-12-18T11:16:35;16.60;40.50
10247;DHT22;5168;47.854;7.944;2022-12-18T11:19:34;16.70;40.30
10247;DHT22;5168;47.854;7.944;2022-12-18T11:22:02;16.70;39.80
10247;DHT22;5168;47.854;7.944;2022-12-18T11:24:33;16.60;37.90
10247;DHT22;5168;47.854;7.944;2022-12-18T11:27:05;16.30;37.70
10247;DHT22;5168;47.854;7.944;2022-12-18T11:29:36;16.30;37.80
10247;DHT22;5168;47.854;7.944;2022-12-18T11:35:17;15.70;36.10
10247;DHT22;5168;47.854;7.944;2022-12-18T11:37:53;15.30;37.40
10247;DHT22;5168;47.854;7.944;2022-12-18T11:40:30;15.30;38.70
10247;DHT22;5168;47.854;7.944;2022-12-18T11:43:18;15.40;39.00
10247;DHT22;5168;47.854;7.944;2022-12-18T11:45:54;15.50;38.60
10247;DHT22;5168;47.854;7.944;2022-12-18T11:48:27;15.70;39.80
10247;DHT22;5168;47.854;7.944;2022-12-18T11:50:55;16.00;40.00
10247;DHT22;5168;47.854;7.944;2022-12-18T11:53:22;16.30;38.50
10247;DHT22;5168;47.854;7.944;2022-12-18T11:58:50;16.70;37.50
10247;DHT22;5168;47.854;7.944;2022-12-18T12:04:21;16.50;34.90
10247;DHT22;5168;47.854;7.944;2022-12-18T12:13:03;16.20;38.50
10247;DHT22;5168;47.854;7.944;2022-12-18T12:18:03;15.70;38.60
10247;DHT22;5168;47.854;7.944;2022-12-18T12:23:36;15.00;41.00
10247;DHT22;5168;47.854;7.944;2022-12-18T12:26:08;14.50;41.10
10247;DHT22;5168;47.854;7.944;2022-12-18T12:31:27;13.90;43.50
10247;DHT22;5168;47.854;7.944;2022-12-18T12:34:16;13.70;44.10
10247;DHT22;5168;47.854;7.944;2022-12-18T12:37:09;13.50;43.20
10247;DHT22;5168;47.854;7.944;2022-12-18T12:39:40;13.30;43.10
10247;DHT22;5168;47.854;7.944;2022-12-18T12:42:15;13.20;43.50
10247;DHT22;5168;47.854;7.944;2022-12-18T12:45:06;13.10;43.90
10247;DHT22;5168;47.854;7.944;2022-12-18T12:47:35;13.00;45.00
10247;DHT22;5168;47.854;7.944;2022-12-18T12:50:05;12.90;43.40
10247;DHT22;5168;47.854;7.944;2022-12-18T12:52:39;12.80;44.30
10247;DHT22;5168;47.854;7.944;2022-12-18T12:55:22;12.70;45.10
10247;DHT22;5168;47.854;7.944;2022-12-18T12:58:16;12.70;44.10
10247;DHT22;5168;47.854;7.944;2022-12-18T13:00:55;12.70;45.70
10247;DHT22;5168;47.854;7.944;2022-12-18T13:06:36;12.60;47.20
10247;DHT22;5168;47.854;7.944;2022-12-18T13:08:59;12.50;46.60
10247;DHT22;5168;47.854;7.944;2022-12-18T13:11:41;12.50;46.40
10247;DHT22;5168;47.854;7.944;2022-12-18T13:14:38;12.50;46.60
10247;DHT22;5168;47.854;7.944;2022-12-18T13:19:50;12.50;47.00
10247;DHT22;5168;47.854;7.944;2022-12-18T13:22:27;12.50;46.20
10247;DHT22;5168;47.854;7.944;2022-12-18T13:24:54;12.50;44.60
10247;DHT22;5168;47.854;7.944;2022-12-18T13:38:37;13.40;40.90
10247;DHT22;5168;47.854;7.944;2022-12-18T13:41:25;13.50;39.30
10247;DHT22;5168;47.854;7.944;2022-12-18T13:43:55;13.50;37.50
10247;DHT22;5168;47.854;7.944;2022-12-18T13:51:59;13.80;35.90
10247;DHT22;5168;47.854;7.944;2022-12-18T13:54:37;13.80;37.00
10247;DHT22;5168;47.854;7.944;2022-12-18T13:57:23;13.40;36.50
10247;DHT22;5168;47.854;7.944;2022-12-18T13:59:50;13.80;37.10
10247;DHT22;5168;47.854;7.944;2022-12-18T14:02:27;13.80;34.80
10247;DHT22;5168;47.854;7.944;2022-12-18T14:04:53;13.70;34.30
10247;DHT22;5168;47.854;7.944;2022-12-18T14:07:28;13.40;34.00
10247;DHT22;5168;47.854;7.944;2022-12-18T14:09:56;13.00;35.20
10247;DHT22;5168;47.854;7.944;2022-12-18T14:12:26;12.70;35.80
10247;DHT22;5168;47.854;7.944;2022-12-18T14:18:00;12.10;37.40
10247;DHT22;5168;47.854;7.944;2022-12-18T14:20:29;12.00;40.10
10247;DHT22;5168;47.854;7.944;2022-12-18T14:22:56;12.00;40.40
10247;DHT22;5168;47.854;7.944;2022-12-18T14:25:32;11.80;41.70
10247;DHT22;5168;47.854;7.944;2022-12-18T14:30:35;11.20;42.20
10247;DHT22;5168;47.854;7.944;2022-12-18T14:33:17;10.80;42.00
10247;DHT22;5168;47.854;7.944;2022-12-18T14:36:05;10.40;43.10
10247;DHT22;5168;47.854;7.944;2022-12-18T14:38:39;10.00;45.60
10247;DHT22;5168;47.854;7.944;2022-12-18T14:43:35;9.40;48.40
10247;DHT22;5168;47.854;7.944;2022-12-18T14:46:02;9.10;49.00
10247;DHT22;5168;47.854;7.944;2022-12-18T14:48:38;8.70;49.40
10247;DHT22;5168;47.854;7.944;2022-12-18T14:51:05;8.40;49.20
10247;DHT22;5168;47.854;7.944;2022-12-18T14:53:40;8.10;48.80
10247;DHT22;5168;47.854;7.944;2022-12-18T14:58:48;7.40;49.90
10247;DHT22;5168;47.854;7.944;2022-12-18T15:01:34;7.00;50.20
10247;DHT22;5168;47.854;7.944;2022-12-18T15:04:01;6.70;50.50
10247;DHT22;5168;47.854;7.944;2022-12-18T15:06:37;6.60;52.60
10247;DHT22;5168;47.854;7.944;2022-12-18T15:09:18;6.50;52.80
10247;DHT22;5168;47.854;7.944;2022-12-18T15:11:46;6.30;53.10
10247;DHT22;5168;47.854;7.944;2022-12-18T15:14:48;6.20;53.70
10247;DHT22;5168;47.854;7.944;2022-12-18T15:17:18;6.10;53.00
10247;DHT22;5168;47.854;7.944;2022-12-18T15:19:45;5.60;53.60
10247;DHT22;5168;47.854;7.944;2022-12-18T15:22:18;5.80;52.60
10247;DHT22;5168;47.854;7.944;2022-12-18T15:24:45;5.60;53.90
10247;DHT22;5168;47.854;7.944;2022-12-18T15:27:44;5.50;54.90
10247;DHT22;5168;47.854;7.944;2022-12-18T15:32:41;5.30;57.80
10247;DHT22;5168;47.854;7.944;2022-12-18T15:35:20;5.00;55.40
10247;DHT22;5168;47.854;7.944;2022-12-18T15:37:46;4.80;55.70
10247;DHT22;5168;47.854;7.944;2022-12-18T15:40:22;4.90;57.20
10247;DHT22;5168;47.854;7.944;2022-12-18T15:42:52;4.90;57.90
10247;DHT22;5168;47.854;7.944;2022-12-18T15:45:37;4.90;55.70
10247;DHT22;5168;47.854;7.944;2022-12-18T15:48:20;4.90;55.20
10247;DHT22;5168;47.854;7.944;2022-12-18T15:50:46;5.00;55.10
10247;DHT22;5168;47.854;7.944;2022-12-18T15:53:12;4.80;55.20
10247;DHT22;5168;47.854;7.944;2022-12-18T15:55:37;4.80;56.70
10247;DHT22;5168;47.854;7.944;2022-12-18T15:58:21;4.30;55.80
10247;DHT22;5168;47.854;7.944;2022-12-18T16:00:47;4.60;55.00
10247;DHT22;5168;47.854;7.944;2022-12-18T16:03:12;4.40;57.70
10247;DHT22;5168;47.854;7.944;2022-12-18T16:05:38;4.40;58.10
10247;DHT22;5168;47.854;7.944;2022-12-18T16:08:03;4.40;57.80
10247;DHT22;5168;47.854;7.944;2022-12-18T16:10:29;4.20;57.00
10247;DHT22;5168;47.854;7.944;2022-12-18T16:12:55;4.30;55.50
10247;DHT22;5168;47.854;7.944;2022-12-18T16:15:20;4.40;55.60
10247;DHT22;5168;47.854;7.944;2022-12-18T16:17:47;4.20;54.50
10247;DHT22;5168;47.854;7.944;2022-12-18T16:20:17;4.30;53.20
10247;DHT22;5168;47.854;7.944;2022-12-18T16:22:44;4.30;51.40
10247;DHT22;5168;47.854;7.944;2022-12-18T16:25:19;4.20;53.50
10247;DHT22;5168;47.854;7.944;2022-12-18T16:27:45;4.80;54.30
10247;DHT22;5168;47.854;7.944;2022-12-18T16:30:21;4.50;54.90
10247;DHT22;5168;47.854;7.944;2022-12-18T16:32:47;4.40;54.40
10247;DHT22;5168;47.854;7.944;2022-12-18T16:35:14;4.30;54.90
10247;DHT22;5168;47.854;7.944;2022-12-18T16:37:40;4.40;53.10
10247;DHT22;5168;47.854;7.944;2022-12-18T16:40:08;4.30;54.50
10247;DHT22;5168;47.854;7.944;2022-12-18T16:42:38;4.50;53.00
10247;DHT22;5168;47.854;7.944;2022-12-18T16:45:05;4.30;54.50
10247;DHT22;5168;47.854;7.944;2022-12-18T16:47:32;4.40;54.70
10247;DHT22;5168;47.854;7.944;2022-12-18T16:49:58;4.10;55.10
10247;DHT22;5168;47.854;7.944;2022-12-18T16:52:23;4.20;53.80
10247;DHT22;5168;47.854;7.944;2022-12-18T16:54:49;4.00;53.00
10247;DHT22;5168;47.854;7.944;2022-12-18T16:57:16;4.20;52.00
10247;DHT22;5168;47.854;7.944;2022-12-18T16:59:42;4.20;51.90
10247;DHT22;5168;47.854;7.944;2022-12-18T17:02:19;4.20;51.40
10247;DHT22;5168;47.854;7.944;2022-12-18T17:04:45;4.20;51.80
10247;DHT22;5168;47.854;7.944;2022-12-18T17:07:11;4.20;50.30
10247;DHT22;5168;47.854;7.944;2022-12-18T17:09:37;4.50;51.70
10247;DHT22;5168;47.854;7.944;2022-12-18T17:12:03;4.10;51.20
10247;DHT22;5168;47.854;7.944;2022-12-18T17:14:29;4.20;50.10
10247;DHT22;5168;47.854;7.944;2022-12-18T17:16:55;4.50;49.80
10247;DHT22;5168;47.854;7.944;2022-12-18T17:19:22;4.40;48.20
10247;DHT22;5168;47.854;7.944;2022-12-18T17:21:49;4.30;47.50
10247;DHT22;5168;47.854;7.944;2022-12-18T17:24:15;4.40;47.10
10247;DHT22;5168;47.854;7.944;2022-12-18T17:26:41;4.30;47.20
10247;DHT22;5168;47.854;7.944;2022-12-18T17:29:08;4.60;47.60
10247;DHT22;5168;47.854;7.944;2022-12-18T17:31:34;4.50;46.30
10247;DHT22;5168;47.854;7.944;2022-12-18T17:34:02;4.60;49.30
10247;DHT22;5168;47.854;7.944;2022-12-18T17:36:28;4.70;47.70
10247;DHT22;5168;47.854;7.944;2022-12-18T17:38:58;4.60;47.00
10247;DHT22;5168;47.854;7.944;2022-12-18T17:41:24;4.60;45.50
10247;DHT22;5168;47.854;7.944;2022-12-18T17:44:01;4.40;45.60
10247;DHT22;5168;47.854;7.944;2022-12-18T17:46:29;4.50;44.80
10247;DHT22;5168;47.854;7.944;2022-12-18T17:48:55;4.70;46.70
10247;DHT22;5168;47.854;7.944;2022-12-18T17:51:21;4.60;47.00
10247;DHT22;5168;47.854;7.944;2022-12-18T17:53:47;4.80;48.50
10247;DHT22;5168;47.854;7.944;2022-12-18T17:56:16;3.10;44.90
10247;DHT22;5168;47.854;7.944;2022-12-18T17:58:42;4.80;47.40
10247;DHT22;5168;47.854;7.944;2022-12-18T18:01:08;4.50;47.80
10247;DHT22;5168;47.854;7.944;2022-12-18T18:03:35;4.50;46.50
10247;DHT22;5168;47.854;7.944;2022-12-18T18:06:06;4.50;46.60
10247;DHT22;5168;47.854;7.944;2022-12-18T18:08:33;4.50;46.80
10247;DHT22;5168;47.854;7.944;2022-12-18T18:11:03;4.60;45.00
10247;DHT22;5168;47.854;7.944;2022-12-18T18:13:49;4.30;47.20
10247;DHT22;5168;47.854;7.944;2022-12-18T18:16:32;4.40;49.00
10247;DHT22;5168;47.854;7.944;2022-12-18T18:19:00;4.60;48.00
10247;DHT22;5168;47.854;7.944;2022-12-18T18:21:27;4.70;45.80
10247;DHT22;5168;47.854;7.944;2022-12-18T18:23:53;4.70;46.40
10247;DHT22;5168;47.854;7.944;2022-12-18T18:26:19;4.80;49.10
10247;DHT22;5168;47.854;7.944;2022-12-18T18:28:45;4.80;51.90
10247;DHT22;5168;47.854;7.944;2022-12-18T18:31:11;4.60;52.80
10247;DHT22;5168;47.854;7.944;2022-12-18T18:36:03;5.00;49.20
10247;DHT22;5168;47.854;7.944;2022-12-18T18:38:28;4.10;50.90
10247;DHT22;5168;47.854;7.944;2022-12-18T18:41:01;4.20;52.20
10247;DHT22;5168;47.854;7.944;2022-12-18T18:43:28;4.40;53.00
10247;DHT22;5168;47.854;7.944;2022-12-18T18:45:55;3.90;52.40
10247;DHT22;5168;47.854;7.944;2022-12-18T18:48:21;4.20;51.40
10247;DHT22;5168;47.854;7.944;2022-12-18T18:50:57;4.20;51.00
10247;DHT22;5168;47.854;7.944;2022-12-18T18:53:23;3.70;48.90
10247;DHT22;5168;47.854;7.944;2022-12-18T18:55:48;3.80;48.10
10247;DHT22;5168;47.854;7.944;2022-12-18T18:58:14;4.00;46.50
10247;DHT22;5168;47.854;7.944;2022-12-18T19:00:39;4.00;47.60
10247;DHT22;5168;47.854;7.944;2022-12-18T19:03:05;4.30;47.40
10247;DHT22;5168;47.854;7.944;2022-12-18T19:05:31;4.40;46.80
10247;DHT22;5168;47.854;7.944;2022-12-18T19:07:57;4.10;46.90
10247;DHT22;5168;47.854;7.944;2022-12-18T19:10:22;4.20;46.50
10247;DHT22;5168;47.854;7.944;2022-12-18T19:12:48;4.50;47.20
10247;DHT22;5168;47.854;7.944;2022-12-18T19:15:32;4.80;47.20
10247;DHT22;5168;47.854;7.944;2022-12-18T19:17:58;4.30;45.30
10247;DHT22;5168;47.854;7.944;2022-12-18T19:20:24;4.20;46.80
10247;DHT22;5168;47.854;7.944;2022-12-18T19:22:50;4.20;46.70
10247;DHT22;5168;47.854;7.944;2022-12-18T19:25:16;5.00;47.80
10247;DHT22;5168;47.854;7.944;2022-12-18T19:27:41;4.80;47.00
10247;DHT22;5168;47.854;7.944;2022-12-18T19:30:07;4.40;47.60
10247;DHT22;5168;47.854;7.944;2022-12-18T19:32:33;4.50;45.60
10247;DHT22;5168;47.854;7.944;2022-12-18T19:34:59;4.50;47.40
10247;DHT22;5168;47.854;7.944;2022-12-18T19:37:24;4.30;47.80
10247;DHT22;5168;47.854;7.944;2022-12-18T19:39:50;4.70;49.40
10247;DHT22;5168;47.854;7.944;2022-12-18T19:42:15;4.40;48.40
10247;DHT22;5168;47.854;7.944;2022-12-18T19:44:41;4.60;48.20